sensor_id;sensor_type;location;lat;lon;timestamp;pressure;altitude;pressure_sealevel;temperature;humidity
929;BME280;451;47.988;7.842;2023-07-29T00:07:29;98018.47;;;18.80;100.00
929;BME280;451;47.988;7.842;2023-07-29T00:16:32;97934.22;;;18.16;100.00
929;BME280;451;47.988;7.842;2023-07-29T00:25:37;98019.16;;;18.75;100.00
929;BME280;451;47.988;7.842;2023-07-29T00:34:40;97944.38;;;18.53;100.00
929;BME280;451;47.988;7.842;2023-07-29T00:43:45;97902.72;;;18.36;100.00
929;BME280;451;47.988;7.842;2023-07-29T00:52:49;97977.91;;;18.89;100.00
929;BME280;451;47.988;7.842;2023-07-29T01:01:53;98021.91;;;19.04;100.00
929;BME280;451;47.988;7.842;2023-07-29T01:11:03;97998.81;;;19.09;100.00
929;BME280;451;47.988;7.842;2023-07-29T01:20:09;97980.19;;;19.09;100.00
929;BME280;451;47.988;7.842;2023-07-29T01:29:15;97980.78;;;19.00;100.00
929;BME280;451;47.988;7.842;2023-07-29T01:38:29;97984.19;;;18.83;100.00
929;BME280;451;47.988;7.842;2023-07-29T01:47:37;97970.75;;;18.78;100.00
929;BME280;451;47.988;7.842;2023-07-29T01:56:42;97943.28;;;18.89;100.00
929;BME280;451;47.988;7.842;2023-07-29T02:05:47;97984.97;;;19.24;100.00
929;BME280;451;47.988;7.842;2023-07-29T02:14:51;97886.31;;;18.16;100.00
929;BME280;451;47.988;7.842;2023-07-29T02:23:55;97980.50;;;19.13;100.00
929;BME280;451;47.988;7.842;2023-07-29T02:32:59;97983.56;;;19.33;100.00
929;BME280;451;47.988;7.842;2023-07-29T02:42:04;97959.94;;;19.25;100.00
929;BME280;451;47.988;7.842;2023-07-29T02:51:08;97965.22;;;19.37;100.00
929;BME280;451;47.988;7.842;2023-07-29T03:00:13;97853.47;;;18.22;100.00
929;BME280;451;47.988;7.842;2023-07-29T03:09:16;97933.69;;;19.17;100.00
929;BME280;451;47.988;7.842;2023-07-29T03:18:21;97943.34;;;19.63;100.00
929;BME280;451;47.988;7.842;2023-07-29T03:27:25;97924.53;;;19.13;100.00
929;BME280;451;47.988;7.842;2023-07-29T03:36:31;97921.91;;;19.01;100.00
929;BME280;451;47.988;7.842;2023-07-29T03:45:35;97912.84;;;19.14;100.00
929;BME280;451;47.988;7.842;2023-07-29T03:54:40;97934.25;;;19.19;100.00
929;BME280;451;47.988;7.842;2023-07-29T04:03:44;97932.63;;;19.18;100.00
929;BME280;451;47.988;7.842;2023-07-29T04:12:49;97945.19;;;19.06;100.00
929;BME280;451;47.988;7.842;2023-07-29T04:21:53;97923.44;;;19.25;100.00
929;BME280;451;47.988;7.842;2023-07-29T04:30:59;97933.25;;;19.65;100.00
929;BME280;451;47.988;7.842;2023-07-29T04:40:03;97954.44;;;20.05;100.00
929;BME280;451;47.988;7.842;2023-07-29T04:49:08;97958.13;;;20.37;100.00
929;BME280;451;47.988;7.842;2023-07-29T04:58:11;97938.06;;;20.51;100.00
929;BME280;451;47.988;7.842;2023-07-29T05:07:15;97983.25;;;20.97;100.00
929;BME280;451;47.988;7.842;2023-07-29T05:16:19;97981.16;;;21.20;100.00
929;BME280;451;47.988;7.842;2023-07-29T05:25:23;97984.38;;;22.35;100.00
929;BME280;451;47.988;7.842;2023-07-29T05:34:27;97960.28;;;22.35;100.00
929;BME280;451;47.988;7.842;2023-07-29T05:43:31;97992.09;;;23.25;100.00
929;BME280;451;47.988;7.842;2023-07-29T05:52:35;98003.28;;;23.02;100.00
929;BME280;451;47.988;7.842;2023-07-29T06:01:40;98000.34;;;23.04;100.00
929;BME280;451;47.988;7.842;2023-07-29T06:10:43;97951.59;;;22.65;100.00
929;BME280;451;47.988;7.842;2023-07-29T06:19:48;97995.09;;;23.34;100.00
929;BME280;451;47.988;7.842;2023-07-29T06:28:52;97996.63;;;23.10;100.00
929;BME280;451;47.988;7.842;2023-07-29T06:37:57;97984.84;;;23.21;100.00
929;BME280;451;47.988;7.842;2023-07-29T06:47:00;97963.72;;;20.74;100.00
929;BME280;451;47.988;7.842;2023-07-29T06:56:05;98033.88;;;20.65;100.00
929;BME280;451;47.988;7.842;2023-07-29T07:05:08;98046.16;;;20.66;100.00
929;BME280;451;47.988;7.842;2023-07-29T07:14:13;98041.88;;;21.03;100.00
929;BME280;451;47.988;7.842;2023-07-29T07:23:17;97929.28;;;20.34;100.00
929;BME280;451;47.988;7.842;2023-07-29T07:32:22;97931.84;;;20.68;100.00
929;BME280;451;47.988;7.842;2023-07-29T07:41:25;98016.34;;;22.09;100.00
929;BME280;451;47.988;7.842;2023-07-29T07:50:30;98002.06;;;22.36;100.00
929;BME280;451;47.988;7.842;2023-07-29T07:59:33;98024.41;;;22.93;100.00
929;BME280;451;47.988;7.842;2023-07-29T08:08:38;98025.84;;;23.74;100.00
929;BME280;451;47.988;7.842;2023-07-29T08:17:41;98024.53;;;24.37;100.00
929;BME280;451;47.988;7.842;2023-07-29T08:26:46;98030.19;;;24.25;100.00
929;BME280;451;47.988;7.842;2023-07-29T08:35:49;98045.22;;;24.62;100.00
929;BME280;451;47.988;7.842;2023-07-29T08:44:54;98042.25;;;24.73;96.38
929;BME280;451;47.988;7.842;2023-07-29T08:53:59;98037.34;;;25.11;90.93
929;BME280;451;47.988;7.842;2023-07-29T09:03:03;98051.13;;;26.07;86.33
929;BME280;451;47.988;7.842;2023-07-29T09:12:09;98057.59;;;26.45;87.60
929;BME280;451;47.988;7.842;2023-07-29T09:21:15;98056.00;;;27.26;78.83
929;BME280;451;47.988;7.842;2023-07-29T09:30:18;98046.72;;;26.22;81.40
929;BME280;451;47.988;7.842;2023-07-29T09:39:24;97949.47;;;25.40;80.10
929;BME280;451;47.988;7.842;2023-07-29T09:48:28;97947.69;;;25.69;77.44
929;BME280;451;47.988;7.842;2023-07-29T09:57:33;98050.53;;;27.74;70.55
929;BME280;451;47.988;7.842;2023-07-29T10:06:38;98035.19;;;27.26;66.47
929;BME280;451;47.988;7.842;2023-07-29T10:15:44;98051.00;;;28.18;67.29
929;BME280;451;47.988;7.842;2023-07-29T10:24:49;98070.75;;;26.81;71.61
929;BME280;451;47.988;7.842;2023-07-29T10:33:55;98049.09;;;27.15;68.15
929;BME280;451;47.988;7.842;2023-07-29T10:43:00;97972.03;;;28.48;62.89
929;BME280;451;47.988;7.842;2023-07-29T10:52:06;98021.75;;;28.53;59.99
929;BME280;451;47.988;7.842;2023-07-29T11:01:12;98041.28;;;27.61;64.38
929;BME280;451;47.988;7.842;2023-07-29T11:10:18;98045.13;;;28.11;63.67
929;BME280;451;47.988;7.842;2023-07-29T11:19:21;97997.28;;;27.93;63.10
929;BME280;451;47.988;7.842;2023-07-29T11:28:26;98022.94;;;27.58;61.85
929;BME280;451;47.988;7.842;2023-07-29T11:37:29;98003.16;;;28.32;58.33
929;BME280;451;47.988;7.842;2023-07-29T11:46:34;98015.63;;;27.96;60.00
929;BME280;451;47.988;7.842;2023-07-29T11:55:37;97998.88;;;28.13;56.86
929;BME280;451;47.988;7.842;2023-07-29T12:04:43;97904.13;;;28.04;56.28
929;BME280;451;47.988;7.842;2023-07-29T12:13:47;97986.84;;;28.97;56.47
929;BME280;451;47.988;7.842;2023-07-29T12:22:56;97986.06;;;29.10;54.70
929;BME280;451;47.988;7.842;2023-07-29T12:32:00;97969.13;;;28.45;56.22
929;BME280;451;47.988;7.842;2023-07-29T12:41:05;97993.00;;;27.92;58.06
929;BME280;451;47.988;7.842;2023-07-29T12:50:09;97911.22;;;27.30;59.78
929;BME280;451;47.988;7.842;2023-07-29T12:59:13;97988.44;;;28.06;59.27
929;BME280;451;47.988;7.842;2023-07-29T13:08:16;98000.78;;;28.44;59.19
929;BME280;451;47.988;7.842;2023-07-29T13:17:22;98002.16;;;28.28;57.31
929;BME280;451;47.988;7.842;2023-07-29T13:26:26;98019.00;;;28.39;58.64
929;BME280;451;47.988;7.842;2023-07-29T13:35:30;98011.41;;;28.87;56.42
929;BME280;451;47.988;7.842;2023-07-29T13:44:34;98028.28;;;27.82;57.30
929;BME280;451;47.988;7.842;2023-07-29T13:53:38;98037.91;;;27.03;59.04
929;BME280;451;47.988;7.842;2023-07-29T14:02:42;97982.63;;;27.19;57.63
929;BME280;451;47.988;7.842;2023-07-29T14:11:46;98013.50;;;27.93;57.82
929;BME280;451;47.988;7.842;2023-07-29T14:20:50;97944.78;;;25.95;65.09
929;BME280;451;47.988;7.842;2023-07-29T14:29:54;98089.16;;;23.64;100.00
929;BME280;451;47.988;7.842;2023-07-29T14:38:58;98017.44;;;21.60;100.00
929;BME280;451;47.988;7.842;2023-07-29T14:48:03;98078.69;;;22.37;100.00
929;BME280;451;47.988;7.842;2023-07-29T14:57:07;98043.28;;;23.09;100.00
929;BME280;451;47.988;7.842;2023-07-29T15:06:11;98062.09;;;22.08;100.00
929;BME280;451;47.988;7.842;2023-07-29T15:15:15;98044.19;;;22.45;100.00
929;BME280;451;47.988;7.842;2023-07-29T15:24:19;97966.16;;;22.37;100.00
929;BME280;451;47.988;7.842;2023-07-29T15:33:22;98052.13;;;23.04;100.00
929;BME280;451;47.988;7.842;2023-07-29T15:42:27;98050.50;;;23.65;100.00
929;BME280;451;47.988;7.842;2023-07-29T15:51:31;98010.22;;;23.65;100.00
929;BME280;451;47.988;7.842;2023-07-29T16:00:35;98049.69;;;23.65;100.00
929;BME280;451;47.988;7.842;2023-07-29T16:09:38;98018.28;;;23.60;99.09
929;BME280;451;47.988;7.842;2023-07-29T16:18:43;98030.78;;;23.35;100.00
929;BME280;451;47.988;7.842;2023-07-29T16:27:46;98009.06;;;22.79;100.00
929;BME280;451;47.988;7.842;2023-07-29T16:36:50;98042.69;;;23.02;100.00
929;BME280;451;47.988;7.842;2023-07-29T16:45:53;98063.00;;;22.87;100.00
929;BME280;451;47.988;7.842;2023-07-29T16:54:58;98059.72;;;23.27;100.00
929;BME280;451;47.988;7.842;2023-07-29T17:04:01;98056.13;;;22.65;100.00
929;BME280;451;47.988;7.842;2023-07-29T17:13:06;98066.06;;;22.69;100.00
929;BME280;451;47.988;7.842;2023-07-29T17:22:09;98004.25;;;22.44;100.00
929;BME280;451;47.988;7.842;2023-07-29T17:31:13;97971.41;;;22.17;100.00
929;BME280;451;47.988;7.842;2023-07-29T17:40:17;98057.16;;;22.96;100.00
929;BME280;451;47.988;7.842;2023-07-29T17:49:22;98024.00;;;22.70;100.00
929;BME280;451;47.988;7.842;2023-07-29T17:58:25;97970.28;;;22.12;100.00
929;BME280;451;47.988;7.842;2023-07-29T18:07:30;98041.09;;;23.01;100.00
929;BME280;451;47.988;7.842;2023-07-29T18:16:33;98015.13;;;22.69;100.00
929;BME280;451;47.988;7.842;2023-07-29T18:25:40;98058.56;;;22.02;100.00
929;BME280;451;47.988;7.842;2023-07-29T18:34:43;98036.38;;;22.39;100.00
929;BME280;451;47.988;7.842;2023-07-29T18:43:48;98042.06;;;21.62;100.00
929;BME280;451;47.988;7.842;2023-07-29T18:52:58;98033.06;;;21.24;100.00
929;BME280;451;47.988;7.842;2023-07-29T19:02:03;98044.97;;;20.95;100.00
929;BME280;451;47.988;7.842;2023-07-29T19:11:06;98057.47;;;20.89;100.00
929;BME280;451;47.988;7.842;2023-07-29T19:20:11;98044.28;;;21.21;100.00
929;BME280;451;47.988;7.842;2023-07-29T19:29:14;98049.50;;;21.55;100.00
929;BME280;451;47.988;7.842;2023-07-29T19:38:19;98034.03;;;21.62;100.00
929;BME280;451;47.988;7.842;2023-07-29T19:47:22;98045.25;;;21.59;100.00
929;BME280;451;47.988;7.842;2023-07-29T19:56:27;97988.03;;;20.94;100.00
929;BME280;451;47.988;7.842;2023-07-29T20:05:31;97989.72;;;21.01;100.00
929;BME280;451;47.988;7.842;2023-07-29T20:14:35;98083.09;;;21.46;100.00
929;BME280;451;47.988;7.842;2023-07-29T20:23:38;98063.56;;;21.45;100.00
929;BME280;451;47.988;7.842;2023-07-29T20:32:43;98062.75;;;21.45;100.00
929;BME280;451;47.988;7.842;2023-07-29T20:41:46;98115.75;;;21.09;100.00
929;BME280;451;47.988;7.842;2023-07-29T20:50:50;98000.06;;;20.53;100.00
929;BME280;451;47.988;7.842;2023-07-29T20:59:55;98099.69;;;21.09;100.00
929;BME280;451;47.988;7.842;2023-07-29T21:08:59;98095.16;;;21.26;100.00
929;BME280;451;47.988;7.842;2023-07-29T21:18:02;98125.63;;;21.69;100.00
929;BME280;451;47.988;7.842;2023-07-29T21:27:07;98121.84;;;21.43;100.00
929;BME280;451;47.988;7.842;2023-07-29T21:36:10;98120.47;;;21.41;100.00
929;BME280;451;47.988;7.842;2023-07-29T21:45:14;98107.97;;;21.46;100.00
929;BME280;451;47.988;7.842;2023-07-29T21:54:18;98109.03;;;21.23;100.00
929;BME280;451;47.988;7.842;2023-07-29T22:03:22;98134.34;;;21.38;100.00
929;BME280;451;47.988;7.842;2023-07-29T22:12:25;98139.88;;;21.14;100.00
929;BME280;451;47.988;7.842;2023-07-29T22:21:34;98128.78;;;21.22;100.00
929;BME280;451;47.988;7.842;2023-07-29T22:30:37;98126.59;;;21.19;100.00
929;BME280;451;47.988;7.842;2023-07-29T22:39:42;98116.41;;;21.16;100.00
929;BME280;451;47.988;7.842;2023-07-29T22:48:49;98156.53;;;21.55;100.00
929;BME280;451;47.988;7.842;2023-07-29T22:57:54;98135.84;;;21.72;100.00
929;BME280;451;47.988;7.842;2023-07-29T23:06:57;98138.63;;;21.39;100.00
929;BME280;451;47.988;7.842;2023-07-29T23:16:03;98133.28;;;21.39;100.00
929;BME280;451;47.988;7.842;2023-07-29T23:25:07;98150.75;;;21.68;100.00
929;BME280;451;47.988;7.842;2023-07-29T23:34:11;98121.03;;;21.43;100.00
929;BME280;451;47.988;7.842;2023-07-29T23:43:14;98128.97;;;21.38;100.00
929;BME280;451;47.988;7.842;2023-07-29T23:52:19;98146.66;;;21.39;100.00
